sensor_id;sensor_type;location;lat;lon;timestamp;P1;durP1;ratioP1;P2;durP2;ratioP2
27802;SDS011;15182;48.174;11.562;2023-03-01T00:02:26;20.90;;;14.77;;
27802;SDS011;15182;48.174;11.562;2023-03-01T00:04:57;21.13;;;13.27;;
27802;SDS011;15182;48.174;11.562;2023-03-01T00:07:28;22.10;;;14.00;;
27802;SDS011;15182;48.174;11.562;2023-03-01T00:10:00;23.80;;;14.27;;
27802;SDS011;15182;48.174;11.562;2023-03-01T00:12:31;19.77;;;13.67;;
27802;SDS011;15182;48.174;11.562;2023-03-01T00:15:03;18.87;;;14.17;;
27802;SDS011;15182;48.174;11.562;2023-03-01T00:17:38;19.20;;;12.77;;
27802;SDS011;15182;48.174;11.562;2023-03-01T00:20:10;17.07;;;13.67;;
27802;SDS011;15182;48.174;11.562;2023-03-01T00:22:42;22.13;;;14.00;;
27802;SDS011;15182;48.174;11.562;2023-03-01T00:25:13;20.37;;;14.00;;
27802;SDS011;15182;48.174;11.562;2023-03-01T00:27:45;22.93;;;13.70;;
27802;SDS011;15182;48.174;11.562;2023-03-01T00:30:17;19.33;;;13.67;;
27802;SDS011;15182;48.174;11.562;2023-03-01T00:32:50;20.93;;;14.10;;
27802;SDS011;15182;48.174;11.562;2023-03-01T00:35:22;18.57;;;14.10;;
27802;SDS011;15182;48.174;11.562;2023-03-01T00:37:54;23.53;;;13.77;;
27802;SDS011;15182;48.174;11.562;2023-03-01T00:40:26;21.27;;;13.27;;
27802;SDS011;15182;48.174;11.562;2023-03-01T00:43:00;20.67;;;14.23;;
27802;SDS011;15182;48.174;11.562;2023-03-01T00:45:32;24.03;;;13.70;;
27802;SDS011;15182;48.174;11.562;2023-03-01T00:48:05;20.27;;;13.67;;
27802;SDS011;15182;48.174;11.562;2023-03-01T00:50:38;25.30;;;14.60;;
27802;SDS011;15182;48.174;11.562;2023-03-01T00:53:09;22.23;;;12.90;;
27802;SDS011;15182;48.174;11.562;2023-03-01T00:55:41;19.27;;;14.03;;
27802;SDS011;15182;48.174;11.562;2023-03-01T00:58:12;22.10;;;14.20;;
27802;SDS011;15182;48.174;11.562;2023-03-01T01:00:43;22.83;;;15.17;;
27802;SDS011;15182;48.174;11.562;2023-03-01T01:03:16;22.10;;;14.10;;
27802;SDS011;15182;48.174;11.562;2023-03-01T01:05:48;19.07;;;13.27;;
27802;SDS011;15182;48.174;11.562;2023-03-01T01:08:19;21.40;;;13.50;;
27802;SDS011;15182;48.174;11.562;2023-03-01T01:10:51;17.77;;;13.90;;
27802;SDS011;15182;48.174;11.562;2023-03-01T01:13:22;23.93;;;14.50;;
27802;SDS011;15182;48.174;11.562;2023-03-01T01:15:53;21.30;;;13.33;;
27802;SDS011;15182;48.174;11.562;2023-03-01T01:18:30;21.67;;;14.70;;
27802;SDS011;15182;48.174;11.562;2023-03-01T01:21:06;24.33;;;14.50;;
27802;SDS011;15182;48.174;11.562;2023-03-01T01:23:41;19.93;;;14.97;;
27802;SDS011;15182;48.174;11.562;2023-03-01T01:26:14;22.67;;;14.17;;
27802;SDS011;15182;48.174;11.562;2023-03-01T01:28:49;23.93;;;13.57;;
27802;SDS011;15182;48.174;11.562;2023-03-01T01:31:21;23.03;;;14.57;;
27802;SDS011;15182;48.174;11.562;2023-03-01T01:33:56;19.07;;;13.80;;
27802;SDS011;15182;48.174;11.562;2023-03-01T01:36:28;21.50;;;14.07;;
27802;SDS011;15182;48.174;11.562;2023-03-01T01:39:00;20.67;;;13.90;;
27802;SDS011;15182;48.174;11.562;2023-03-01T01:41:32;20.87;;;13.73;;
27802;SDS011;15182;48.174;11.562;2023-03-01T01:44:11;21.03;;;14.20;;
27802;SDS011;15182;48.174;11.562;2023-03-01T01:46:47;17.60;;;13.80;;
27802;SDS011;15182;48.174;11.562;2023-03-01T01:49:26;20.13;;;13.53;;
27802;SDS011;15182;48.174;11.562;2023-03-01T01:52:02;26.63;;;14.57;;
27802;SDS011;15182;48.174;11.562;2023-03-01T01:54:41;18.40;;;13.60;;
27802;SDS011;15182;48.174;11.562;2023-03-01T01:57:17;21.87;;;14.60;;
27802;SDS011;15182;48.174;11.562;2023-03-01T01:59:52;21.10;;;14.83;;
27802;SDS011;15182;48.174;11.562;2023-03-01T02:02:39;21.63;;;13.57;;
27802;SDS011;15182;48.174;11.562;2023-03-01T02:05:17;22.17;;;14.20;;
27802;SDS011;15182;48.174;11.562;2023-03-01T02:07:55;19.83;;;14.00;;
27802;SDS011;15182;48.174;11.562;2023-03-01T02:10:29;23.53;;;14.63;;
27802;SDS011;15182;48.174;11.562;2023-03-01T02:13:03;20.50;;;14.53;;
27802;SDS011;15182;48.174;11.562;2023-03-01T02:15:36;21.13;;;14.17;;
27802;SDS011;15182;48.174;11.562;2023-03-01T02:18:10;19.07;;;13.23;;
27802;SDS011;15182;48.174;11.562;2023-03-01T02:20:51;21.37;;;14.73;;
27802;SDS011;15182;48.174;11.562;2023-03-01T02:23:31;20.63;;;13.70;;
27802;SDS011;15182;48.174;11.562;2023-03-01T02:26:07;19.73;;;13.80;;
27802;SDS011;15182;48.174;11.562;2023-03-01T02:28:46;20.30;;;13.80;;
27802;SDS011;15182;48.174;11.562;2023-03-01T02:31:19;23.50;;;14.33;;
27802;SDS011;15182;48.174;11.562;2023-03-01T02:34:12;20.93;;;14.37;;
27802;SDS011;15182;48.174;11.562;2023-03-01T02:36:48;21.33;;;14.07;;
27802;SDS011;15182;48.174;11.562;2023-03-01T02:39:25;20.40;;;14.00;;
27802;SDS011;15182;48.174;11.562;2023-03-01T02:41:59;21.23;;;14.17;;
27802;SDS011;15182;48.174;11.562;2023-03-01T02:44:35;22.43;;;14.90;;
27802;SDS011;15182;48.174;11.562;2023-03-01T02:47:07;21.10;;;14.30;;
27802;SDS011;15182;48.174;11.562;2023-03-01T02:49:40;23.57;;;14.30;;
27802;SDS011;15182;48.174;11.562;2023-03-01T02:52:17;19.67;;;13.50;;
27802;SDS011;15182;48.174;11.562;2023-03-01T02:55:00;20.23;;;13.73;;
27802;SDS011;15182;48.174;11.562;2023-03-01T02:57:38;22.87;;;14.37;;
27802;SDS011;15182;48.174;11.562;2023-03-01T03:00:18;18.50;;;13.63;;
27802;SDS011;15182;48.174;11.562;2023-03-01T03:02:53;24.83;;;14.57;;
27802;SDS011;15182;48.174;11.562;2023-03-01T03:05:26;21.43;;;14.13;;
27802;SDS011;15182;48.174;11.562;2023-03-01T03:08:01;21.87;;;13.37;;
27802;SDS011;15182;48.174;11.562;2023-03-01T03:10:38;25.17;;;15.40;;
27802;SDS011;15182;48.174;11.562;2023-03-01T03:13:11;20.40;;;13.80;;
27802;SDS011;15182;48.174;11.562;2023-03-01T03:15:46;21.97;;;14.97;;
27802;SDS011;15182;48.174;11.562;2023-03-01T03:18:17;22.10;;;14.10;;
27802;SDS011;15182;48.174;11.562;2023-03-01T03:20:51;20.27;;;13.87;;
27802;SDS011;15182;48.174;11.562;2023-03-01T03:23:23;19.90;;;14.40;;
27802;SDS011;15182;48.174;11.562;2023-03-01T03:25:55;21.70;;;14.97;;
27802;SDS011;15182;48.174;11.562;2023-03-01T03:28:27;21.43;;;14.07;;
27802;SDS011;15182;48.174;11.562;2023-03-01T03:30:59;20.83;;;13.83;;
27802;SDS011;15182;48.174;11.562;2023-03-01T03:33:32;21.13;;;14.20;;
27802;SDS011;15182;48.174;11.562;2023-03-01T03:36:04;23.53;;;14.77;;
27802;SDS011;15182;48.174;11.562;2023-03-01T03:38:38;22.10;;;14.67;;
27802;SDS011;15182;48.174;11.562;2023-03-01T03:41:11;21.30;;;14.73;;
27802;SDS011;15182;48.174;11.562;2023-03-01T03:43:45;23.23;;;14.60;;
27802;SDS011;15182;48.174;11.562;2023-03-01T03:46:18;21.43;;;14.13;;
27802;SDS011;15182;48.174;11.562;2023-03-01T03:48:51;19.40;;;14.40;;
27802;SDS011;15182;48.174;11.562;2023-03-01T03:51:22;23.67;;;15.37;;
27802;SDS011;15182;48.174;11.562;2023-03-01T03:53:55;30.73;;;15.50;;
27802;SDS011;15182;48.174;11.562;2023-03-01T03:56:26;23.47;;;14.57;;
27802;SDS011;15182;48.174;11.562;2023-03-01T03:58:57;24.30;;;15.23;;
27802;SDS011;15182;48.174;11.562;2023-03-01T04:01:30;20.73;;;14.93;;
27802;SDS011;15182;48.174;11.562;2023-03-01T04:04:01;22.57;;;14.47;;
27802;SDS011;15182;48.174;11.562;2023-03-01T04:06:33;26.10;;;15.10;;
27802;SDS011;15182;48.174;11.562;2023-03-01T04:09:04;23.20;;;14.93;;
27802;SDS011;15182;48.174;11.562;2023-03-01T04:11:35;21.93;;;15.27;;
27802;SDS011;15182;48.174;11.562;2023-03-01T04:14:07;18.77;;;13.97;;
27802;SDS011;15182;48.174;11.562;2023-03-01T04:16:40;22.97;;;14.53;;
27802;SDS011;15182;48.174;11.562;2023-03-01T04:19:11;24.57;;;14.90;;
27802;SDS011;15182;48.174;11.562;2023-03-01T04:21:43;25.47;;;15.87;;
27802;SDS011;15182;48.174;11.562;2023-03-01T04:24:14;21.97;;;14.77;;
27802;SDS011;15182;48.174;11.562;2023-03-01T04:26:47;20.43;;;14.63;;
27802;SDS011;15182;48.174;11.562;2023-03-01T04:29:18;21.00;;;14.67;;
27802;SDS011;15182;48.174;11.562;2023-03-01T04:31:51;23.57;;;13.77;;
27802;SDS011;15182;48.174;11.562;2023-03-01T04:34:22;18.10;;;13.30;;
27802;SDS011;15182;48.174;11.562;2023-03-01T04:36:55;20.10;;;13.90;;
27802;SDS011;15182;48.174;11.562;2023-03-01T04:39:26;20.97;;;14.73;;
27802;SDS011;15182;48.174;11.562;2023-03-01T04:42:00;25.33;;;14.77;;
27802;SDS011;15182;48.174;11.562;2023-03-01T04:44:31;22.07;;;14.73;;
27802;SDS011;15182;48.174;11.562;2023-03-01T04:47:03;27.50;;;14.80;;
27802;SDS011;15182;48.174;11.562;2023-03-01T04:49:35;20.40;;;14.37;;
27802;SDS011;15182;48.174;11.562;2023-03-01T04:52:06;25.73;;;14.73;;
27802;SDS011;15182;48.174;11.562;2023-03-01T04:54:37;24.37;;;15.33;;
27802;SDS011;15182;48.174;11.562;2023-03-01T04:57:09;21.90;;;13.53;;
27802;SDS011;15182;48.174;11.562;2023-03-01T04:59:40;23.40;;;14.20;;
27802;SDS011;15182;48.174;11.562;2023-03-01T05:02:13;21.63;;;14.63;;
27802;SDS011;15182;48.174;11.562;2023-03-01T05:04:44;22.37;;;14.53;;
27802;SDS011;15182;48.174;11.562;2023-03-01T05:07:15;23.33;;;14.73;;
27802;SDS011;15182;48.174;11.562;2023-03-01T05:09:46;22.53;;;14.53;;
27802;SDS011;15182;48.174;11.562;2023-03-01T05:12:18;24.20;;;15.07;;
27802;SDS011;15182;48.174;11.562;2023-03-01T05:14:49;20.37;;;14.57;;
27802;SDS011;15182;48.174;11.562;2023-03-01T05:17:22;19.70;;;14.47;;
27802;SDS011;15182;48.174;11.562;2023-03-01T05:19:55;26.77;;;15.53;;
27802;SDS011;15182;48.174;11.562;2023-03-01T05:22:26;25.17;;;15.17;;
27802;SDS011;15182;48.174;11.562;2023-03-01T05:24:59;22.43;;;15.03;;
27802;SDS011;15182;48.174;11.562;2023-03-01T05:27:31;22.77;;;14.23;;
27802;SDS011;15182;48.174;11.562;2023-03-01T05:30:05;22.43;;;14.43;;
27802;SDS011;15182;48.174;11.562;2023-03-01T05:32:45;24.47;;;15.10;;
27802;SDS011;15182;48.174;11.562;2023-03-01T05:35:21;22.03;;;15.47;;
27802;SDS011;15182;48.174;11.562;2023-03-01T05:37:54;21.80;;;14.80;;
27802;SDS011;15182;48.174;11.562;2023-03-01T05:40:26;20.33;;;15.53;;
27802;SDS011;15182;48.174;11.562;2023-03-01T05:43:01;21.87;;;14.33;;
27802;SDS011;15182;48.174;11.562;2023-03-01T05:45:33;21.00;;;14.20;;
27802;SDS011;15182;48.174;11.562;2023-03-01T05:48:06;20.00;;;14.53;;
27802;SDS011;15182;48.174;11.562;2023-03-01T05:50:39;20.30;;;14.43;;
27802;SDS011;15182;48.174;11.562;2023-03-01T05:53:13;21.00;;;14.27;;
27802;SDS011;15182;48.174;11.562;2023-03-01T05:55:47;24.40;;;15.37;;
27802;SDS011;15182;48.174;11.562;2023-03-01T05:58:19;22.33;;;14.17;;
27802;SDS011;15182;48.174;11.562;2023-03-01T06:00:50;26.47;;;14.67;;
27802;SDS011;15182;48.174;11.562;2023-03-01T06:03:23;23.17;;;14.50;;
27802;SDS011;15182;48.174;11.562;2023-03-01T06:05:55;22.50;;;14.80;;
27802;SDS011;15182;48.174;11.562;2023-03-01T06:08:27;21.20;;;14.83;;
27802;SDS011;15182;48.174;11.562;2023-03-01T06:11:01;24.50;;;15.23;;
27802;SDS011;15182;48.174;11.562;2023-03-01T06:13:33;23.63;;;14.70;;
27802;SDS011;15182;48.174;11.562;2023-03-01T06:16:06;20.43;;;14.13;;
27802;SDS011;15182;48.174;11.562;2023-03-01T06:18:40;23.90;;;15.40;;
27802;SDS011;15182;48.174;11.562;2023-03-01T06:21:11;23.50;;;15.43;;
27802;SDS011;15182;48.174;11.562;2023-03-01T06:23:43;22.33;;;15.13;;
27802;SDS011;15182;48.174;11.562;2023-03-01T06:26:14;21.37;;;14.93;;
27802;SDS011;15182;48.174;11.562;2023-03-01T06:28:45;24.03;;;15.13;;
27802;SDS011;15182;48.174;11.562;2023-03-01T06:31:17;22.93;;;15.83;;
27802;SDS011;15182;48.174;11.562;2023-03-01T06:33:59;24.43;;;14.90;;
27802;SDS011;15182;48.174;11.562;2023-03-01T06:36:30;24.17;;;14.73;;
27802;SDS011;15182;48.174;11.562;2023-03-01T06:39:01;20.70;;;14.53;;
27802;SDS011;15182;48.174;11.562;2023-03-01T06:41:33;24.57;;;15.80;;
27802;SDS011;15182;48.174;11.562;2023-03-01T06:44:04;25.60;;;15.43;;
27802;SDS011;15182;48.174;11.562;2023-03-01T06:46:35;24.67;;;14.90;;
27802;SDS011;15182;48.174;11.562;2023-03-01T06:49:09;25.07;;;15.70;;
27802;SDS011;15182;48.174;11.562;2023-03-01T06:51:41;21.97;;;15.27;;
27802;SDS011;15182;48.174;11.562;2023-03-01T06:54:13;25.57;;;15.07;;
27802;SDS011;15182;48.174;11.562;2023-03-01T06:56:47;22.23;;;15.10;;
27802;SDS011;15182;48.174;11.562;2023-03-01T06:59:19;25.40;;;15.43;;
27802;SDS011;15182;48.174;11.562;2023-03-01T07:01:50;22.57;;;14.50;;
27802;SDS011;15182;48.174;11.562;2023-03-01T07:04:23;24.43;;;15.60;;
27802;SDS011;15182;48.174;11.562;2023-03-01T07:06:56;25.67;;;15.57;;
27802;SDS011;15182;48.174;11.562;2023-03-01T07:09:28;27.43;;;15.07;;
27802;SDS011;15182;48.174;11.562;2023-03-01T07:11:59;23.93;;;15.97;;
27802;SDS011;15182;48.174;11.562;2023-03-01T07:14:30;28.07;;;17.47;;
27802;SDS011;15182;48.174;11.562;2023-03-01T07:17:02;23.40;;;15.33;;
27802;SDS011;15182;48.174;11.562;2023-03-01T07:19:35;25.83;;;16.67;;
27802;SDS011;15182;48.174;11.562;2023-03-01T07:22:06;26.63;;;16.37;;
27802;SDS011;15182;48.174;11.562;2023-03-01T07:24:37;25.23;;;15.93;;
27802;SDS011;15182;48.174;11.562;2023-03-01T07:27:09;20.83;;;14.73;;
27802;SDS011;15182;48.174;11.562;2023-03-01T07:29:40;21.93;;;16.03;;
27802;SDS011;15182;48.174;11.562;2023-03-01T07:32:11;23.93;;;16.00;;
27802;SDS011;15182;48.174;11.562;2023-03-01T07:34:44;23.97;;;15.77;;
27802;SDS011;15182;48.174;11.562;2023-03-01T07:37:15;23.70;;;15.13;;
27802;SDS011;15182;48.174;11.562;2023-03-01T07:39:46;25.70;;;16.57;;
27802;SDS011;15182;48.174;11.562;2023-03-01T07:42:18;26.20;;;16.07;;
27802;SDS011;15182;48.174;11.562;2023-03-01T07:44:49;21.47;;;15.00;;
27802;SDS011;15182;48.174;11.562;2023-03-01T07:47:20;23.17;;;14.20;;
27802;SDS011;15182;48.174;11.562;2023-03-01T07:49:52;26.57;;;15.77;;
27802;SDS011;15182;48.174;11.562;2023-03-01T07:52:24;28.03;;;15.30;;
27802;SDS011;15182;48.174;11.562;2023-03-01T07:54:55;23.97;;;16.10;;
27802;SDS011;15182;48.174;11.562;2023-03-01T07:57:26;29.23;;;16.20;;
27802;SDS011;15182;48.174;11.562;2023-03-01T07:59:58;24.17;;;14.93;;
27802;SDS011;15182;48.174;11.562;2023-03-01T08:02:37;30.67;;;15.40;;
27802;SDS011;15182;48.174;11.562;2023-03-01T08:05:10;29.40;;;16.20;;
27802;SDS011;15182;48.174;11.562;2023-03-01T08:07:42;26.23;;;17.07;;
27802;SDS011;15182;48.174;11.562;2023-03-01T08:10:13;22.47;;;15.37;;
27802;SDS011;15182;48.174;11.562;2023-03-01T08:12:45;31.60;;;15.13;;
27802;SDS011;15182;48.174;11.562;2023-03-01T08:15:16;28.13;;;16.73;;
27802;SDS011;15182;48.174;11.562;2023-03-01T08:17:48;27.63;;;15.90;;
27802;SDS011;15182;48.174;11.562;2023-03-01T08:20:21;29.13;;;16.67;;
27802;SDS011;15182;48.174;11.562;2023-03-01T08:22:52;29.13;;;16.87;;
27802;SDS011;15182;48.174;11.562;2023-03-01T08:25:23;31.63;;;16.37;;
27802;SDS011;15182;48.174;11.562;2023-03-01T08:27:55;26.50;;;16.00;;
27802;SDS011;15182;48.174;11.562;2023-03-01T08:30:27;27.83;;;16.43;;
27802;SDS011;15182;48.174;11.562;2023-03-01T08:32:58;25.53;;;15.87;;
27802;SDS011;15182;48.174;11.562;2023-03-01T08:35:31;24.47;;;15.67;;
27802;SDS011;15182;48.174;11.562;2023-03-01T08:38:02;28.63;;;16.97;;
27802;SDS011;15182;48.174;11.562;2023-03-01T08:40:34;26.67;;;17.43;;
27802;SDS011;15182;48.174;11.562;2023-03-01T08:43:05;29.83;;;17.50;;
27802;SDS011;15182;48.174;11.562;2023-03-01T08:45:36;24.93;;;15.23;;
27802;SDS011;15182;48.174;11.562;2023-03-01T08:48:08;25.33;;;16.70;;
27802;SDS011;15182;48.174;11.562;2023-03-01T08:50:40;29.23;;;16.37;;
27802;SDS011;15182;48.174;11.562;2023-03-01T08:53:11;27.53;;;17.30;;
27802;SDS011;15182;48.174;11.562;2023-03-01T08:55:42;30.83;;;15.97;;
27802;SDS011;15182;48.174;11.562;2023-03-01T08:58:14;23.47;;;15.10;;
27802;SDS011;15182;48.174;11.562;2023-03-01T09:00:45;28.40;;;17.10;;
27802;SDS011;15182;48.174;11.562;2023-03-01T09:03:16;31.53;;;16.17;;
27802;SDS011;15182;48.174;11.562;2023-03-01T09:05:49;27.90;;;16.57;;
27802;SDS011;15182;48.174;11.562;2023-03-01T09:08:26;28.63;;;15.53;;
27802;SDS011;15182;48.174;11.562;2023-03-01T09:10:57;28.30;;;16.73;;
27802;SDS011;15182;48.174;11.562;2023-03-01T09:13:29;26.43;;;15.80;;
27802;SDS011;15182;48.174;11.562;2023-03-01T09:16:02;26.10;;;16.97;;
27802;SDS011;15182;48.174;11.562;2023-03-01T09:18:37;27.20;;;16.30;;
27802;SDS011;15182;48.174;11.562;2023-03-01T09:21:10;27.17;;;16.43;;
27802;SDS011;15182;48.174;11.562;2023-03-01T09:23:43;26.07;;;15.97;;
27802;SDS011;15182;48.174;11.562;2023-03-01T09:26:17;29.40;;;17.83;;
27802;SDS011;15182;48.174;11.562;2023-03-01T09:28:50;27.67;;;16.63;;
27802;SDS011;15182;48.174;11.562;2023-03-01T09:31:23;26.63;;;15.53;;
27802;SDS011;15182;48.174;11.562;2023-03-01T09:33:55;29.57;;;16.80;;
27802;SDS011;15182;48.174;11.562;2023-03-01T09:36:27;25.13;;;15.80;;
27802;SDS011;15182;48.174;11.562;2023-03-01T09:38:59;28.77;;;17.50;;
27802;SDS011;15182;48.174;11.562;2023-03-01T09:41:42;31.13;;;16.53;;
27802;SDS011;15182;48.174;11.562;2023-03-01T09:44:18;26.13;;;17.17;;
27802;SDS011;15182;48.174;11.562;2023-03-01T09:46:58;26.43;;;15.90;;
27802;SDS011;15182;48.174;11.562;2023-03-01T09:49:30;27.30;;;15.00;;
27802;SDS011;15182;48.174;11.562;2023-03-01T09:52:09;28.23;;;16.40;;
27802;SDS011;15182;48.174;11.562;2023-03-01T09:54:46;29.93;;;16.70;;
27802;SDS011;15182;48.174;11.562;2023-03-01T09:57:26;32.03;;;16.27;;
27802;SDS011;15182;48.174;11.562;2023-03-01T10:00:10;26.73;;;16.30;;
27802;SDS011;15182;48.174;11.562;2023-03-01T10:02:48;34.37;;;17.93;;
27802;SDS011;15182;48.174;11.562;2023-03-01T10:08:23;31.67;;;18.53;;
27802;SDS011;15182;48.174;11.562;2023-03-01T10:10:56;29.80;;;17.13;;
27802;SDS011;15182;48.174;11.562;2023-03-01T10:13:34;29.50;;;17.53;;
27802;SDS011;15182;48.174;11.562;2023-03-01T10:16:16;27.60;;;16.60;;
27802;SDS011;15182;48.174;11.562;2023-03-01T10:18:52;27.87;;;16.80;;
27802;SDS011;15182;48.174;11.562;2023-03-01T10:21:26;28.63;;;17.27;;
27802;SDS011;15182;48.174;11.562;2023-03-01T10:24:04;30.53;;;16.57;;
27802;SDS011;15182;48.174;11.562;2023-03-01T10:26:43;30.10;;;17.40;;
27802;SDS011;15182;48.174;11.562;2023-03-01T10:29:23;32.70;;;17.80;;
27802;SDS011;15182;48.174;11.562;2023-03-01T10:32:00;31.27;;;18.37;;
27802;SDS011;15182;48.174;11.562;2023-03-01T10:34:33;32.37;;;17.37;;
27802;SDS011;15182;48.174;11.562;2023-03-01T10:37:09;30.03;;;17.47;;
27802;SDS011;15182;48.174;11.562;2023-03-01T10:40:01;28.67;;;17.37;;
27802;SDS011;15182;48.174;11.562;2023-03-01T10:42:36;28.43;;;16.97;;
27802;SDS011;15182;48.174;11.562;2023-03-01T10:45:16;28.97;;;17.13;;
27802;SDS011;15182;48.174;11.562;2023-03-01T10:48:03;27.10;;;17.90;;
27802;SDS011;15182;48.174;11.562;2023-03-01T10:50:39;26.27;;;17.90;;
27802;SDS011;15182;48.174;11.562;2023-03-01T10:53:19;33.17;;;17.87;;
27802;SDS011;15182;48.174;11.562;2023-03-01T10:55:58;30.90;;;17.63;;
27802;SDS011;15182;48.174;11.562;2023-03-01T10:58:33;27.03;;;17.20;;
27802;SDS011;15182;48.174;11.562;2023-03-01T11:01:23;31.07;;;17.33;;
27802;SDS011;15182;48.174;11.562;2023-03-01T11:04:10;28.33;;;16.83;;
27802;SDS011;15182;48.174;11.562;2023-03-01T11:06:43;27.23;;;16.57;;
27802;SDS011;15182;48.174;11.562;2023-03-01T11:09:25;27.37;;;17.37;;
27802;SDS011;15182;48.174;11.562;2023-03-01T11:12:05;28.43;;;17.13;;
27802;SDS011;15182;48.174;11.562;2023-03-01T11:14:45;27.10;;;15.90;;
27802;SDS011;15182;48.174;11.562;2023-03-01T11:17:21;28.47;;;17.10;;
27802;SDS011;15182;48.174;11.562;2023-03-01T11:20:01;25.47;;;16.60;;
27802;SDS011;15182;48.174;11.562;2023-03-01T11:22:51;25.43;;;15.80;;
27802;SDS011;15182;48.174;11.562;2023-03-01T11:25:24;26.17;;;15.83;;
27802;SDS011;15182;48.174;11.562;2023-03-01T11:28:00;26.77;;;16.13;;
27802;SDS011;15182;48.174;11.562;2023-03-01T11:30:35;24.53;;;16.07;;
27802;SDS011;15182;48.174;11.562;2023-03-01T11:33:13;24.37;;;15.80;;
27802;SDS011;15182;48.174;11.562;2023-03-01T11:35:49;21.60;;;14.00;;
27802;SDS011;15182;48.174;11.562;2023-03-01T11:38:27;30.47;;;17.13;;
27802;SDS011;15182;48.174;11.562;2023-03-01T11:41:06;24.67;;;15.57;;
27802;SDS011;15182;48.174;11.562;2023-03-01T11:43:47;25.33;;;15.93;;
27802;SDS011;15182;48.174;11.562;2023-03-01T11:52:33;23.93;;;15.00;;
27802;SDS011;15182;48.174;11.562;2023-03-01T11:55:27;23.37;;;14.53;;
27802;SDS011;15182;48.174;11.562;2023-03-01T11:58:27;27.43;;;14.57;;
27802;SDS011;15182;48.174;11.562;2023-03-01T12:01:19;29.57;;;15.10;;
27802;SDS011;15182;48.174;11.562;2023-03-01T12:07:31;26.87;;;14.80;;
27802;SDS011;15182;48.174;11.562;2023-03-01T12:10:19;25.57;;;15.43;;
27802;SDS011;15182;48.174;11.562;2023-03-01T12:16:32;24.07;;;14.90;;
27802;SDS011;15182;48.174;11.562;2023-03-01T12:19:43;26.03;;;14.80;;
27802;SDS011;15182;48.174;11.562;2023-03-01T12:22:43;22.90;;;15.27;;
27802;SDS011;15182;48.174;11.562;2023-03-01T12:25:25;24.60;;;15.17;;
27802;SDS011;15182;48.174;11.562;2023-03-01T12:34:15;25.87;;;15.10;;
27802;SDS011;15182;48.174;11.562;2023-03-01T12:37:05;23.27;;;15.50;;
27802;SDS011;15182;48.174;11.562;2023-03-01T12:39:54;21.27;;;15.17;;
27802;SDS011;15182;48.174;11.562;2023-03-01T12:42:48;22.27;;;14.90;;
27802;SDS011;15182;48.174;11.562;2023-03-01T12:45:35;22.47;;;15.10;;
27802;SDS011;15182;48.174;11.562;2023-03-01T12:48:19;25.20;;;14.93;;
27802;SDS011;15182;48.174;11.562;2023-03-01T12:51:07;28.67;;;15.57;;
27802;SDS011;15182;48.174;11.562;2023-03-01T12:53:41;21.87;;;14.93;;
27802;SDS011;15182;48.174;11.562;2023-03-01T12:56:18;22.93;;;14.63;;
27802;SDS011;15182;48.174;11.562;2023-03-01T12:58:56;25.37;;;14.90;;
27802;SDS011;15182;48.174;11.562;2023-03-01T13:01:34;20.77;;;14.37;;
27802;SDS011;15182;48.174;11.562;2023-03-01T13:04:18;19.37;;;14.40;;
27802;SDS011;15182;48.174;11.562;2023-03-01T13:07:20;22.57;;;13.67;;
27802;SDS011;15182;48.174;11.562;2023-03-01T13:09:57;27.03;;;15.27;;
27802;SDS011;15182;48.174;11.562;2023-03-01T13:12:51;23.37;;;14.60;;
27802;SDS011;15182;48.174;11.562;2023-03-01T13:15:31;23.30;;;15.40;;
27802;SDS011;15182;48.174;11.562;2023-03-01T13:18:27;21.13;;;14.47;;
27802;SDS011;15182;48.174;11.562;2023-03-01T13:21:02;21.97;;;15.00;;
27802;SDS011;15182;48.174;11.562;2023-03-01T13:23:36;23.17;;;14.97;;
27802;SDS011;15182;48.174;11.562;2023-03-01T13:26:09;23.30;;;14.70;;
27802;SDS011;15182;48.174;11.562;2023-03-01T13:34:45;20.27;;;14.20;;
27802;SDS011;15182;48.174;11.562;2023-03-01T13:37:26;24.33;;;13.33;;
27802;SDS011;15182;48.174;11.562;2023-03-01T13:43:28;22.33;;;14.30;;
27802;SDS011;15182;48.174;11.562;2023-03-01T13:46:00;23.73;;;15.03;;
27802;SDS011;15182;48.174;11.562;2023-03-01T13:48:37;24.00;;;15.47;;
27802;SDS011;15182;48.174;11.562;2023-03-01T13:51:12;23.53;;;15.33;;
27802;SDS011;15182;48.174;11.562;2023-03-01T13:53:48;27.40;;;14.70;;
27802;SDS011;15182;48.174;11.562;2023-03-01T13:56:23;21.83;;;14.37;;
27802;SDS011;15182;48.174;11.562;2023-03-01T13:59:01;26.63;;;14.47;;
27802;SDS011;15182;48.174;11.562;2023-03-01T14:01:39;25.17;;;15.30;;
27802;SDS011;15182;48.174;11.562;2023-03-01T14:04:21;20.47;;;13.43;;
27802;SDS011;15182;48.174;11.562;2023-03-01T14:07:08;22.73;;;14.87;;
27802;SDS011;15182;48.174;11.562;2023-03-01T14:09:45;24.30;;;14.47;;
27802;SDS011;15182;48.174;11.562;2023-03-01T14:12:26;23.37;;;14.57;;
27802;SDS011;15182;48.174;11.562;2023-03-01T14:15:06;19.93;;;14.13;;
27802;SDS011;15182;48.174;11.562;2023-03-01T14:17:47;22.40;;;14.33;;
27802;SDS011;15182;48.174;11.562;2023-03-01T14:20:23;21.00;;;13.87;;
27802;SDS011;15182;48.174;11.562;2023-03-01T14:22:57;22.73;;;13.30;;
27802;SDS011;15182;48.174;11.562;2023-03-01T14:25:37;22.00;;;13.43;;
27802;SDS011;15182;48.174;11.562;2023-03-01T14:28:16;23.33;;;14.50;;
27802;SDS011;15182;48.174;11.562;2023-03-01T14:30:50;22.20;;;14.57;;
27802;SDS011;15182;48.174;11.562;2023-03-01T14:33:24;20.30;;;13.77;;
27802;SDS011;15182;48.174;11.562;2023-03-01T14:35:59;19.90;;;13.30;;
27802;SDS011;15182;48.174;11.562;2023-03-01T14:38:34;20.77;;;13.77;;
27802;SDS011;15182;48.174;11.562;2023-03-01T14:41:10;22.80;;;13.77;;
27802;SDS011;15182;48.174;11.562;2023-03-01T14:43:44;21.67;;;14.17;;
27802;SDS011;15182;48.174;11.562;2023-03-01T14:46:17;20.93;;;12.77;;
27802;SDS011;15182;48.174;11.562;2023-03-01T14:48:55;20.87;;;13.40;;
27802;SDS011;15182;48.174;11.562;2023-03-01T14:51:37;20.67;;;13.27;;
27802;SDS011;15182;48.174;11.562;2023-03-01T14:54:18;19.70;;;12.17;;
27802;SDS011;15182;48.174;11.562;2023-03-01T14:56:53;21.27;;;12.97;;
27802;SDS011;15182;48.174;11.562;2023-03-01T14:59:28;21.40;;;13.70;;
27802;SDS011;15182;48.174;11.562;2023-03-01T15:02:04;17.20;;;12.77;;
27802;SDS011;15182;48.174;11.562;2023-03-01T15:04:45;23.37;;;12.70;;
27802;SDS011;15182;48.174;11.562;2023-03-01T15:07:19;19.97;;;13.17;;
27802;SDS011;15182;48.174;11.562;2023-03-01T15:09:53;19.50;;;13.23;;
27802;SDS011;15182;48.174;11.562;2023-03-01T15:12:36;20.07;;;12.67;;
27802;SDS011;15182;48.174;11.562;2023-03-01T15:15:26;18.97;;;13.03;;
27802;SDS011;15182;48.174;11.562;2023-03-01T15:18:03;18.77;;;12.30;;
27802;SDS011;15182;48.174;11.562;2023-03-01T15:20:42;18.60;;;12.27;;
27802;SDS011;15182;48.174;11.562;2023-03-01T15:23:21;20.50;;;12.83;;
27802;SDS011;15182;48.174;11.562;2023-03-01T15:25:56;22.03;;;13.17;;
27802;SDS011;15182;48.174;11.562;2023-03-01T15:28:31;18.43;;;12.93;;